createdAt,value
2023-01-09T00:00:33.183Z,98594.84
2023-01-09T00:02:59.786Z,98588.78
2023-01-09T00:05:26.631Z,98584.44
2023-01-09T00:07:53.250Z,98576.75
2023-01-09T00:10:20.510Z,98587.41
2023-01-09T00:12:46.992Z,98589.34
2023-01-09T00:15:13.585Z,98574.59
2023-01-09T00:17:40.448Z,98575.59
2023-01-09T00:20:10.118Z,98577.44
2023-01-09T00:22:37.639Z,98568.72
2023-01-09T00:25:05.086Z,98558.25
2023-01-09T00:27:35.909Z,98554.81
2023-01-09T00:30:03.532Z,98545.16
2023-01-09T00:32:30.273Z,98553.88
2023-01-09T00:34:57.020Z,98534.84
2023-01-09T00:37:23.894Z,98540.16
2023-01-09T00:39:50.935Z,98545.09
2023-01-09T00:42:28.609Z,98540.63
2023-01-09T00:44:58.976Z,98544.16
2023-01-09T00:47:31.407Z,98544.06
2023-01-09T00:50:03.058Z,98529.31
2023-01-09T00:52:34.167Z,98534.59
2023-01-09T00:55:00.969Z,98538.88
2023-01-09T00:57:27.546Z,98531.81
2023-01-09T00:59:54.154Z,98528.38
2023-01-09T01:02:21.601Z,98545.66
2023-01-09T01:05:06.839Z,98530.22
2023-01-09T01:07:40.218Z,98533.28
2023-01-09T01:10:11.129Z,98526.41
2023-01-09T01:12:38.798Z,98538.47
2023-01-09T01:15:07.233Z,98534.22
2023-01-09T01:17:38.598Z,98528.28
2023-01-09T01:20:06.881Z,98530.97
2023-01-09T01:22:33.418Z,98531.72
2023-01-09T01:25:00.312Z,98528.38
2023-01-09T01:27:27.917Z,98530.16
2023-01-09T01:29:54.645Z,98537.94
2023-01-09T01:32:21.068Z,98550.94
2023-01-09T01:34:47.990Z,98540.53
2023-01-09T01:37:14.855Z,98543.22
2023-01-09T01:39:41.564Z,98564.94
2023-01-09T01:42:08.524Z,98557.06
2023-01-09T01:45:01.994Z,98557.06
2023-01-09T01:47:34.290Z,98558.00
2023-01-09T01:50:07.584Z,98550.53
2023-01-09T01:52:36.424Z,98555.75
2023-01-09T01:55:23.898Z,98557.56
2023-01-09T01:58:14.602Z,98559.31
2023-01-09T02:01:02.033Z,98573.41
2023-01-09T02:03:51.109Z,98567.13
2023-01-09T02:06:38.665Z,98563.75
2023-01-09T02:09:26.847Z,98565.53
2023-01-09T02:11:57.780Z,98558.75
2023-01-09T02:14:28.462Z,98557.72
2023-01-09T02:17:13.330Z,98564.69
2023-01-09T02:20:15.108Z,98560.59
2023-01-09T02:23:07.160Z,98567.47
2023-01-09T02:25:48.432Z,98557.81
2023-01-09T02:28:30.401Z,98557.06
2023-01-09T02:31:12.195Z,98544.16
2023-01-09T02:33:57.479Z,98544.00
2023-01-09T02:36:54.734Z,98558.56
2023-01-09T02:39:33.183Z,98558.81
2023-01-09T02:42:07.070Z,98553.47
2023-01-09T02:44:37.025Z,98546.41
2023-01-09T02:47:29.242Z,98548.25
2023-01-09T02:50:01.021Z,98560.50
2023-01-09T02:52:33.931Z,98567.28
2023-01-09T02:55:25.961Z,98575.25
2023-01-09T02:58:01.887Z,98583.81
2023-01-09T03:01:05.804Z,98588.34
2023-01-09T03:03:52.524Z,98584.81
2023-01-09T03:06:31.306Z,98582.34
2023-01-09T03:09:05.237Z,98589.91
2023-01-09T03:11:39.074Z,98588.63
2023-01-09T03:14:12.981Z,98608.81
2023-01-09T03:16:41.915Z,98621.06
2023-01-09T03:19:15.607Z,98625.50
2023-01-09T03:21:44.759Z,98626.69
2023-01-09T03:24:11.266Z,98631.22
2023-01-09T03:26:38.676Z,98640.66
2023-01-09T03:29:05.181Z,98646.63
2023-01-09T03:31:32.147Z,98647.28
2023-01-09T03:33:59.307Z,98644.88
2023-01-09T03:36:26.035Z,98648.38
2023-01-09T03:38:53.118Z,98655.44
2023-01-09T03:41:20.113Z,98663.41
2023-01-09T03:43:48.629Z,98673.88
2023-01-09T03:46:18.471Z,98675.47
2023-01-09T03:48:45.553Z,98687.78
2023-01-09T03:51:12.105Z,98687.78
2023-01-09T03:53:38.587Z,98698.09
2023-01-09T03:56:05.482Z,98698.94
2023-01-09T03:58:32.451Z,98706.81
2023-01-09T04:01:01.702Z,98700.94
2023-01-09T04:03:29.260Z,98716.59
2023-01-09T04:05:55.801Z,98727.00
2023-01-09T04:08:22.838Z,98735.69
2023-01-09T04:10:50.661Z,98745.25
2023-01-09T04:13:17.813Z,98749.28
2023-01-09T04:15:47.572Z,98751.19
2023-01-09T04:18:15.295Z,98753.72
2023-01-09T04:20:42.453Z,98762.50
2023-01-09T04:23:09.258Z,98772.97
2023-01-09T04:25:35.743Z,98776.41
2023-01-09T04:28:02.143Z,98780.00
2023-01-09T04:30:28.925Z,98804.53
2023-01-09T04:32:55.701Z,98792.16
2023-01-09T04:35:22.688Z,98792.69
2023-01-09T04:37:49.204Z,98798.78
2023-01-09T04:40:16.807Z,98803.16
2023-01-09T04:42:43.486Z,98807.66
2023-01-09T04:45:11.923Z,98801.31
2023-01-09T04:47:38.967Z,98803.31
2023-01-09T04:50:05.748Z,98804.22
2023-01-09T04:52:32.391Z,98804.31
2023-01-09T04:54:59.675Z,98810.19
2023-01-09T04:57:26.400Z,98815.59
2023-01-09T04:59:54.237Z,98834.63
2023-01-09T05:02:21.215Z,98834.97
2023-01-09T05:04:48.006Z,98843.13
2023-01-09T05:07:14.678Z,98844.13
2023-01-09T05:09:41.803Z,98858.94
2023-01-09T05:12:08.501Z,98864.44
2023-01-09T05:14:35.397Z,98871.31
2023-01-09T05:17:02.340Z,98874.81
2023-01-09T05:19:29.012Z,98875.81
2023-01-09T05:21:56.155Z,98876.59
2023-01-09T05:24:22.611Z,98884.44
2023-01-09T05:26:49.579Z,98887.44
2023-01-09T05:29:16.270Z,98885.53
2023-01-09T05:31:43.093Z,98888.06
2023-01-09T05:34:09.524Z,98886.13
2023-01-09T05:36:36.060Z,98899.94
2023-01-09T05:39:03.245Z,98893.47
2023-01-09T05:41:29.607Z,98899.44
2023-01-09T05:43:56.685Z,98904.63
2023-01-09T05:46:23.172Z,98910.03
2023-01-09T05:48:49.949Z,98915.38
2023-01-09T05:51:16.521Z,98926.66
2023-01-09T05:53:42.943Z,98916.56
2023-01-09T05:56:11.442Z,98913.63
2023-01-09T05:58:38.271Z,98907.78
2023-01-09T06:01:04.988Z,98921.75
2023-01-09T06:03:31.639Z,98920.28
2023-01-09T06:05:58.191Z,98928.38
2023-01-09T06:08:24.641Z,98935.53
2023-01-09T06:10:51.612Z,98942.69
2023-01-09T06:13:18.148Z,98950.25
2023-01-09T06:15:46.987Z,98961.63
2023-01-09T06:18:13.465Z,98961.69
2023-01-09T06:20:39.859Z,98969.66
2023-01-09T06:23:06.509Z,98968.16
2023-01-09T06:25:33.095Z,98974.19
2023-01-09T06:27:59.523Z,98967.31
2023-01-09T06:30:25.967Z,98963.25
2023-01-09T06:32:52.906Z,98966.75
2023-01-09T06:35:21.023Z,98976.97
2023-01-09T06:37:48.697Z,98983.84
2023-01-09T06:40:16.246Z,98974.31
2023-01-09T06:42:44.670Z,98970.31
2023-01-09T06:45:12.804Z,98979.97
2023-01-09T06:47:40.491Z,98998.13
2023-01-09T06:50:09.592Z,98984.31
2023-01-09T06:52:40.285Z,98987.88
2023-01-09T06:55:08.538Z,98983.63
2023-01-09T06:57:35.218Z,98979.41
2023-01-09T07:00:02.059Z,98980.34
2023-01-09T07:02:28.495Z,98975.38
2023-01-09T07:04:55.044Z,98964.09
2023-01-09T07:07:22.343Z,98969.41
2023-01-09T07:09:49.231Z,98962.53
2023-01-09T07:12:16.046Z,98968.56
2023-01-09T07:14:42.874Z,98965.97
2023-01-09T07:17:12.370Z,98965.91
2023-01-09T07:19:38.897Z,98983.34
2023-01-09T07:22:05.366Z,98974.66
2023-01-09T07:24:31.845Z,98977.25
2023-01-09T07:26:58.642Z,98980.69
2023-01-09T07:29:25.452Z,98995.53
2023-01-09T07:31:51.927Z,98991.13
2023-01-09T07:34:19.422Z,98991.06
2023-01-09T07:36:46.825Z,98989.44
2023-01-09T07:39:13.573Z,98997.28
2023-01-09T07:41:40.500Z,98998.97
2023-01-09T07:44:11.108Z,99002.31
2023-01-09T07:46:38.168Z,99007.63
2023-01-09T07:49:04.919Z,99003.38
2023-01-09T07:51:31.805Z,99012.75
2023-01-09T07:53:58.470Z,99011.91
2023-01-09T07:56:24.968Z,99011.00
2023-01-09T07:58:51.542Z,99020.47
2023-01-09T08:01:18.596Z,99021.88
2023-01-09T08:03:45.335Z,99019.97
2023-01-09T08:06:12.070Z,99021.81
2023-01-09T08:08:38.453Z,99032.25
2023-01-09T08:11:05.329Z,99031.41
2023-01-09T08:13:32.809Z,99033.09
2023-01-09T08:15:59.343Z,99032.03
2023-01-09T08:18:25.884Z,99030.16
2023-01-09T08:20:52.348Z,99032.59
2023-01-09T08:23:18.758Z,99034.03
2023-01-09T08:25:45.412Z,99033.31
2023-01-09T08:28:12.461Z,99034.56
2023-01-09T08:30:38.985Z,99035.72
2023-01-09T08:33:06.317Z,99035.56
2023-01-09T08:35:32.956Z,99032.00
2023-01-09T08:37:59.616Z,99032.59
2023-01-09T08:40:26.284Z,99039.41
2023-01-09T08:43:11.399Z,99045.56
2023-01-09T08:45:56.918Z,99045.88
2023-01-09T08:48:23.683Z,99040.38
2023-01-09T08:50:50.221Z,99042.91
2023-01-09T08:53:16.788Z,99059.47
2023-01-09T08:55:43.648Z,99058.72
2023-01-09T08:58:10.743Z,99054.28
2023-01-09T09:00:37.813Z,99051.75
2023-01-09T09:03:04.552Z,99052.69
2023-01-09T09:05:32.206Z,99061.50
2023-01-09T09:07:59.571Z,99057.44
2023-01-09T09:10:28.029Z,99065.34
2023-01-09T09:12:58.135Z,99075.66
2023-01-09T09:15:26.769Z,99061.84
2023-01-09T09:17:55.789Z,99068.44
2023-01-09T09:20:24.756Z,99073.56
2023-01-09T09:22:52.000Z,99071.03
2023-01-09T09:25:19.497Z,99072.72
2023-01-09T09:27:46.435Z,99069.28
2023-01-09T09:30:15.951Z,99082.34
2023-01-09T09:32:42.775Z,99077.84
2023-01-09T09:35:09.902Z,99086.16
2023-01-09T09:37:37.152Z,99079.88
2023-01-09T09:40:17.508Z,99078.13
2023-01-09T09:43:21.602Z,99078.88
2023-01-09T09:45:59.712Z,99078.03
2023-01-09T09:49:07.245Z,99072.84
2023-01-09T09:52:11.559Z,99070.25
2023-01-09T09:54:43.356Z,99073.56
2023-01-09T09:57:16.535Z,99082.59
2023-01-09T09:59:44.546Z,99083.03
2023-01-09T10:02:40.333Z,99080.06
2023-01-09T10:05:17.088Z,99083.88
2023-01-09T10:07:48.989Z,99075.97
2023-01-09T10:10:31.496Z,99074.56
2023-01-09T10:12:59.934Z,99076.81
2023-01-09T10:15:51.497Z,99073.50
2023-01-09T10:18:48.508Z,99070.13
2023-01-09T10:21:58.885Z,99071.03
2023-01-09T10:24:41.992Z,99082.28
2023-01-09T10:27:18.879Z,99077.22
2023-01-09T10:30:24.614Z,99082.13
2023-01-09T10:32:57.786Z,99073.50
2023-01-09T10:35:47.740Z,99083.19
2023-01-09T10:38:22.070Z,99079.59
2023-01-09T10:41:01.469Z,99083.94
2023-01-09T10:43:51.421Z,99075.78
2023-01-09T10:46:25.808Z,99071.44
2023-01-09T10:48:59.411Z,99067.09
2023-01-09T10:51:34.828Z,99068.84
2023-01-09T10:54:02.135Z,99091.38
2023-01-09T10:56:34.268Z,99086.16
2023-01-09T10:59:01.492Z,99082.13
2023-01-09T11:01:32.121Z,99089.47
2023-01-09T11:04:01.782Z,99092.72
2023-01-09T11:06:46.795Z,99092.72
2023-01-09T11:09:15.054Z,99098.88
2023-01-09T11:11:41.681Z,99090.97
2023-01-09T11:14:16.039Z,99093.06
2023-01-09T11:16:52.399Z,99091.38
2023-01-09T11:19:19.453Z,99082.59
2023-01-09T11:21:46.345Z,99083.03
2023-01-09T11:24:18.938Z,99090.38
2023-01-09T11:26:47.453Z,99077.50
2023-01-09T11:29:19.120Z,99078.31
2023-01-09T11:31:56.314Z,99092.84
2023-01-09T11:34:25.304Z,99083.88
2023-01-09T11:36:54.409Z,99083.50
2023-01-09T11:39:21.371Z,99086.25
2023-01-09T11:41:54.709Z,99076.78
2023-01-09T11:44:21.857Z,99074.97
2023-01-09T11:46:48.902Z,99074.56
2023-01-09T11:49:15.342Z,99091.50
2023-01-09T11:51:43.266Z,99082.03
2023-01-09T11:54:23.959Z,99083.94
2023-01-09T11:56:50.840Z,99088.38
2023-01-09T11:59:20.704Z,99086.75
2023-01-09T12:02:24.439Z,99074.56
2023-01-09T12:05:06.988Z,99084.88
2023-01-09T12:07:33.376Z,99094.41
2023-01-09T12:10:18.451Z,99091.88
2023-01-09T12:13:13.921Z,99083.31
2023-01-09T12:15:56.143Z,99085.13
2023-01-09T12:18:37.531Z,99091.03
2023-01-09T12:21:32.770Z,99085.91
2023-01-09T12:24:22.150Z,99082.34
2023-01-09T12:26:55.026Z,99080.50
2023-01-09T12:29:47.603Z,99079.53
2023-01-09T12:32:51.520Z,99084.63
2023-01-09T12:35:28.119Z,99084.88
2023-01-09T12:38:22.384Z,99078.91
2023-01-09T12:40:54.969Z,99080.44
2023-01-09T12:43:37.713Z,99086.81
2023-01-09T12:46:20.476Z,99082.34
2023-01-09T12:49:22.340Z,99075.47
2023-01-09T12:52:01.079Z,99076.31
2023-01-09T12:54:49.507Z,99075.66
2023-01-09T12:57:25.055Z,99081.00
2023-01-09T12:59:56.857Z,99082.19
2023-01-09T13:02:32.527Z,99084.88
2023-01-09T13:05:06.159Z,99089.75
2023-01-09T13:07:39.261Z,99088.56
2023-01-09T13:10:22.292Z,99088.38
2023-01-09T13:12:51.336Z,99095.16
2023-01-09T13:15:45.911Z,99095.50
2023-01-09T13:18:15.640Z,99103.34
2023-01-09T13:20:47.162Z,99103.41
2023-01-09T13:23:18.541Z,99113.06
2023-01-09T13:25:52.533Z,99113.22
2023-01-09T13:28:24.278Z,99120.09
2023-01-09T13:31:05.703Z,99120.78
2023-01-09T13:33:36.701Z,99115.09
2023-01-09T13:36:04.090Z,99115.00
2023-01-09T13:38:33.920Z,99118.16
2023-01-09T13:41:33.471Z,99111.59
2023-01-09T13:44:19.954Z,99116.72
2023-01-09T13:46:50.167Z,99111.66
2023-01-09T13:49:41.813Z,99111.59
2023-01-09T13:52:38.334Z,99107.38
2023-01-09T13:55:23.854Z,99111.72
2023-01-09T13:58:06.013Z,99119.16
2023-01-09T14:00:35.627Z,99117.25
2023-01-09T14:03:18.001Z,99125.59
2023-01-09T14:05:44.667Z,99123.91
2023-01-09T14:08:19.295Z,99129.31
2023-01-09T14:10:53.405Z,99131.44
2023-01-09T14:13:27.700Z,99142.78
2023-01-09T14:16:23.446Z,99140.91
2023-01-09T14:19:05.354Z,99138.38
2023-01-09T14:21:46.858Z,99142.53
2023-01-09T14:24:22.188Z,99144.28
2023-01-09T14:26:55.280Z,99150.22
2023-01-09T14:29:29.620Z,99152.13
2023-01-09T14:32:21.349Z,99148.75
2023-01-09T14:34:53.677Z,99160.69
2023-01-09T14:37:21.267Z,99152.19
2023-01-09T14:39:51.246Z,99166.91
2023-01-09T14:42:24.045Z,99160.13
2023-01-09T14:45:07.303Z,99166.22
2023-01-09T14:47:41.968Z,99174.72
2023-01-09T14:50:14.788Z,99180.94
2023-01-09T14:53:11.396Z,99179.19
2023-01-09T14:55:57.957Z,99175.09
2023-01-09T14:58:32.593Z,99186.31
2023-01-09T15:01:19.324Z,99188.13
2023-01-09T15:03:45.852Z,99189.94
2023-01-09T15:06:16.749Z,99198.72
2023-01-09T15:08:50.123Z,99209.09
2023-01-09T15:11:18.294Z,99211.69
2023-01-09T15:13:47.840Z,99218.91
2023-01-09T15:16:18.995Z,99236.34
2023-01-09T15:18:48.771Z,99231.47
2023-01-09T15:21:21.522Z,99232.56
2023-01-09T15:23:48.083Z,99233.75
2023-01-09T15:26:30.503Z,99235.38
2023-01-09T15:29:02.316Z,99237.84
2023-01-09T15:31:29.221Z,99236.34
2023-01-09T15:33:57.071Z,99230.25
2023-01-09T15:36:26.793Z,99231.16
2023-01-09T15:38:54.439Z,99227.00
2023-01-09T15:41:48.977Z,99234.91
2023-01-09T15:44:19.366Z,99231.66
2023-01-09T15:46:49.821Z,99227.38
2023-01-09T15:49:16.927Z,99240.34
2023-01-09T15:51:45.052Z,99247.28
2023-01-09T15:54:27.062Z,99245.53
2023-01-09T15:56:53.516Z,99255.84
2023-01-09T15:59:24.135Z,99257.56
2023-01-09T16:02:19.626Z,99264.44
2023-01-09T16:04:51.514Z,99264.66
2023-01-09T16:07:20.779Z,99264.78
2023-01-09T16:09:49.094Z,99276.00
2023-01-09T16:12:22.042Z,99284.69
2023-01-09T16:14:53.170Z,99286.53
2023-01-09T16:17:23.823Z,99292.50
2023-01-09T16:19:58.550Z,99296.06
2023-01-09T16:22:29.759Z,99302.88
2023-01-09T16:24:58.504Z,99316.91
2023-01-09T16:27:33.800Z,99316.13
2023-01-09T16:30:06.875Z,99329.31
2023-01-09T16:32:36.397Z,99324.19
2023-01-09T16:35:14.221Z,99333.03
2023-01-09T16:37:40.859Z,99322.66
2023-01-09T16:40:25.313Z,99335.63
2023-01-09T16:43:01.813Z,99338.16
2023-01-09T16:45:40.253Z,99336.47
2023-01-09T16:48:13.534Z,99339.91
2023-01-09T16:50:40.794Z,99342.44
2023-01-09T16:53:15.840Z,99340.75
2023-01-09T16:55:42.850Z,99346.81
2023-01-09T16:58:16.400Z,99344.41
2023-01-09T17:00:44.257Z,99351.56
2023-01-09T17:03:15.261Z,99360.19
2023-01-09T17:05:42.460Z,99375.72
2023-01-09T17:08:28.035Z,99373.13
2023-01-09T17:10:56.320Z,99372.97
2023-01-09T17:13:24.075Z,99372.19
2023-01-09T17:15:52.955Z,99378.19
2023-01-09T17:18:22.392Z,99385.19
2023-01-09T17:20:51.943Z,99400.72
2023-01-09T17:23:21.143Z,99395.50
2023-01-09T17:26:08.246Z,99389.56
2023-01-09T17:28:35.976Z,99400.69
2023-01-09T17:31:09.126Z,99402.53
2023-01-09T17:33:37.513Z,99420.84
2023-01-09T17:36:15.569Z,99431.09
2023-01-09T17:38:42.355Z,99429.44
2023-01-09T17:41:12.767Z,99439.16
2023-01-09T17:43:42.811Z,99448.84
2023-01-09T17:46:21.996Z,99450.53
2023-01-09T17:48:49.009Z,99456.81
2023-01-09T17:51:15.537Z,99462.88
2023-01-09T17:53:42.453Z,99474.16
2023-01-09T17:56:15.961Z,99466.53
2023-01-09T17:58:45.922Z,99483.16
2023-01-09T18:01:17.745Z,99490.03
2023-01-09T18:03:48.604Z,99499.75
2023-01-09T18:06:18.096Z,99508.25
2023-01-09T18:08:44.730Z,99506.41
2023-01-09T18:11:17.765Z,99512.38
2023-01-09T18:13:49.576Z,99521.91
2023-01-09T18:16:23.901Z,99527.97
2023-01-09T18:18:52.293Z,99533.16
2023-01-09T18:21:23.227Z,99540.97
2023-01-09T18:23:50.194Z,99546.31
2023-01-09T18:26:20.951Z,99549.69
2023-01-09T18:28:58.130Z,99559.25
2023-01-09T18:31:27.314Z,99556.75
2023-01-09T18:33:56.734Z,99565.31
2023-01-09T18:36:29.252Z,99570.50
2023-01-09T18:39:01.418Z,99575.63
2023-01-09T18:41:28.874Z,99586.00
2023-01-09T18:43:57.886Z,99586.75
2023-01-09T18:46:25.730Z,99595.47
2023-01-09T18:48:59.238Z,99594.50
2023-01-09T18:51:27.786Z,99604.88
2023-01-09T18:53:55.129Z,99611.00
2023-01-09T18:56:22.684Z,99607.56
2023-01-09T18:58:49.309Z,99616.19
2023-01-09T19:01:16.389Z,99617.03
2023-01-09T19:03:43.115Z,99626.44
2023-01-09T19:06:10.714Z,99630.97
2023-01-09T19:08:37.653Z,99631.84
2023-01-09T19:11:04.573Z,99630.13
2023-01-09T19:13:34.406Z,99636.09
2023-01-09T19:16:01.489Z,99642.16
2023-01-09T19:18:29.542Z,99642.97
2023-01-09T19:20:55.963Z,99643.72
2023-01-09T19:23:25.792Z,99661.94
2023-01-09T19:25:55.483Z,99659.44
2023-01-09T19:28:22.193Z,99660.09
2023-01-09T19:30:56.096Z,99651.59
2023-01-09T19:33:24.317Z,99660.25
2023-01-09T19:35:54.274Z,99666.22
2023-01-09T19:38:24.946Z,99666.13
2023-01-09T19:40:51.878Z,99678.25
2023-01-09T19:43:27.488Z,99673.78
2023-01-09T19:45:55.728Z,99674.81
2023-01-09T19:48:23.551Z,99680.88
2023-01-09T19:50:50.361Z,99685.06
2023-01-09T19:53:16.835Z,99697.22
2023-01-09T19:55:43.442Z,99699.81
2023-01-09T19:58:10.222Z,99710.22
2023-01-09T20:00:37.326Z,99710.03
2023-01-09T20:03:04.221Z,99702.13
2023-01-09T20:05:32.561Z,99711.59
2023-01-09T20:07:59.041Z,99730.69
2023-01-09T20:10:25.472Z,99724.59
2023-01-09T20:12:52.057Z,99724.56
2023-01-09T20:15:18.561Z,99725.44
2023-01-09T20:17:45.298Z,99721.88
2023-01-09T20:20:12.072Z,99736.47
2023-01-09T20:22:38.715Z,99733.94
2023-01-09T20:25:07.846Z,99728.88
2023-01-09T20:27:34.403Z,99738.34
2023-01-09T20:30:01.143Z,99732.38
2023-01-09T20:32:30.074Z,99744.44
2023-01-09T20:34:57.155Z,99740.09
2023-01-09T20:37:24.143Z,99748.53
2023-01-09T20:39:52.882Z,99753.72
2023-01-09T20:42:19.453Z,99750.94
2023-01-09T20:44:46.215Z,99756.19
2023-01-09T20:47:12.914Z,99764.88
2023-01-09T20:49:41.331Z,99757.16
2023-01-09T20:52:07.825Z,99769.19
2023-01-09T20:54:35.567Z,99776.06
2023-01-09T20:57:02.673Z,99769.94
2023-01-09T20:59:29.308Z,99775.25
2023-01-09T21:01:56.042Z,99775.34
2023-01-09T21:04:22.635Z,99782.97
2023-01-09T21:06:50.339Z,99785.63
2023-01-09T21:09:17.496Z,99790.06
2023-01-09T21:11:44.191Z,99789.13
2023-01-09T21:14:10.714Z,99789.09
2023-01-09T21:16:37.308Z,99791.00
2023-01-09T21:19:03.998Z,99794.38
2023-01-09T21:21:33.451Z,99796.06
2023-01-09T21:24:00.815Z,99805.63
2023-01-09T21:26:30.182Z,99801.25
2023-01-09T21:28:58.890Z,99808.47
2023-01-09T21:31:34.313Z,99812.97
2023-01-09T21:34:07.409Z,99814.47
2023-01-09T21:36:35.122Z,99817.81
2023-01-09T21:39:01.829Z,99828.75
2023-01-09T21:41:46.758Z,99828.03
2023-01-09T21:44:32.617Z,99832.59
2023-01-09T21:47:00.963Z,99841.41
2023-01-09T21:49:31.015Z,99846.63
2023-01-09T21:51:58.216Z,99845.91
2023-01-09T21:54:24.858Z,99847.53
2023-01-09T21:56:52.751Z,99849.38
2023-01-09T21:59:20.723Z,99850.34
2023-01-09T22:01:50.996Z,99860.56
2023-01-09T22:04:20.065Z,99858.81
2023-01-09T22:06:46.775Z,99863.25
2023-01-09T22:09:13.500Z,99865.00
2023-01-09T22:11:41.155Z,99872.66
2023-01-09T22:14:11.795Z,99877.72
2023-01-09T22:16:38.402Z,99886.50
2023-01-09T22:19:05.332Z,99890.66
2023-01-09T22:21:31.939Z,99895.03
2023-01-09T22:24:01.656Z,99900.75
2023-01-09T22:26:29.386Z,99915.34
2023-01-09T22:28:57.058Z,99915.50
2023-01-09T22:31:26.082Z,99916.69
2023-01-09T22:33:54.796Z,99913.25
2023-01-09T22:36:21.490Z,99917.56
2023-01-09T22:38:47.982Z,99928.00
2023-01-09T22:41:14.780Z,99921.94
2023-01-09T22:43:41.418Z,99938.16
2023-01-09T22:46:11.409Z,99942.50
2023-01-09T22:48:39.301Z,99950.47
2023-01-09T22:51:20.407Z,99952.16
2023-01-09T22:53:47.335Z,99952.44
2023-01-09T22:56:16.492Z,99960.00
2023-01-09T22:58:44.231Z,99960.09
2023-01-09T23:01:12.548Z,99961.03
2023-01-09T23:03:39.757Z,99967.16
2023-01-09T23:06:10.519Z,99967.16
2023-01-09T23:08:38.145Z,99969.66
2023-01-09T23:11:07.499Z,99978.44
2023-01-09T23:13:35.060Z,99970.66
2023-01-09T23:16:01.750Z,99978.47
2023-01-09T23:18:28.743Z,99990.59
2023-01-09T23:21:04.796Z,99993.13
2023-01-09T23:23:31.923Z,100004.31
2023-01-09T23:26:02.102Z,99995.63
2023-01-09T23:28:30.322Z,99997.38
2023-01-09T23:30:57.102Z,100008.59
2023-01-09T23:33:23.618Z,100015.56
2023-01-09T23:35:50.050Z,100020.72
2023-01-09T23:38:16.710Z,100017.22
2023-01-09T23:40:43.152Z,100021.59
2023-01-09T23:43:11.695Z,100024.22
2023-01-09T23:45:40.357Z,100031.91
2023-01-09T23:48:09.561Z,100032.81
2023-01-09T23:50:36.887Z,100036.22
2023-01-09T23:53:04.055Z,100054.31
2023-01-09T23:55:31.131Z,100044.78
2023-01-09T23:57:57.709Z,100054.31
